sensor_id;sensor_type;location;lat;lon;timestamp;pressure;altitude;pressure_sealevel;temperature;humidity
10392;BME280;5242;49.244;6.774;2023-08-07T00:05:34;99615.91;;;11.59;nan
10392;BME280;5242;49.244;6.774;2023-08-07T00:13:26;99611.91;;;11.53;nan
10392;BME280;5242;49.244;6.774;2023-08-07T00:21:18;99608.22;;;11.45;nan
10392;BME280;5242;49.244;6.774;2023-08-07T00:29:09;99626.44;;;11.41;nan
10392;BME280;5242;49.244;6.774;2023-08-07T00:37:01;99630.59;;;11.35;nan
10392;BME280;5242;49.244;6.774;2023-08-07T00:44:53;99635.09;;;11.27;nan
10392;BME280;5242;49.244;6.774;2023-08-07T00:52:45;99633.34;;;11.19;nan
10392;BME280;5242;49.244;6.774;2023-08-07T01:00:37;99631.97;;;11.09;nan
10392;BME280;5242;49.244;6.774;2023-08-07T01:08:31;99632.78;;;10.94;nan
10392;BME280;5242;49.244;6.774;2023-08-07T01:16:35;99623.09;;;10.81;nan
10392;BME280;5242;49.244;6.774;2023-08-07T01:24:29;99632.97;;;10.70;nan
10392;BME280;5242;49.244;6.774;2023-08-07T01:32:26;99638.84;;;10.56;nan
10392;BME280;5242;49.244;6.774;2023-08-07T01:40:20;99643.72;;;10.34;nan
10392;BME280;5242;49.244;6.774;2023-08-07T01:48:13;99643.69;;;10.18;nan
10392;BME280;5242;49.244;6.774;2023-08-07T01:56:05;99649.97;;;10.07;nan
10392;BME280;5242;49.244;6.774;2023-08-07T02:03:56;99653.53;;;9.95;nan
10392;BME280;5242;49.244;6.774;2023-08-07T02:11:48;99664.41;;;9.95;nan
10392;BME280;5242;49.244;6.774;2023-08-07T02:19:40;99664.75;;;9.93;nan
10392;BME280;5242;49.244;6.774;2023-08-07T02:27:32;99662.28;;;9.88;nan
10392;BME280;5242;49.244;6.774;2023-08-07T02:35:23;99662.44;;;9.79;nan
10392;BME280;5242;49.244;6.774;2023-08-07T02:43:15;99666.50;;;9.73;nan
10392;BME280;5242;49.244;6.774;2023-08-07T02:51:07;99675.38;;;9.70;nan
10392;BME280;5242;49.244;6.774;2023-08-07T02:58:59;99662.00;;;9.65;nan
10392;BME280;5242;49.244;6.774;2023-08-07T03:06:53;99669.94;;;9.70;nan
10392;BME280;5242;49.244;6.774;2023-08-07T03:14:45;99668.91;;;9.75;nan
10392;BME280;5242;49.244;6.774;2023-08-07T03:22:37;99673.19;;;9.76;nan
10392;BME280;5242;49.244;6.774;2023-08-07T03:30:29;99670.94;;;9.78;nan
10392;BME280;5242;49.244;6.774;2023-08-07T03:38:20;99652.91;;;9.73;nan
10392;BME280;5242;49.244;6.774;2023-08-07T03:46:13;99664.28;;;9.63;nan
10392;BME280;5242;49.244;6.774;2023-08-07T03:54:05;99662.16;;;9.56;nan
10392;BME280;5242;49.244;6.774;2023-08-07T04:01:57;99660.22;;;9.57;nan
10392;BME280;5242;49.244;6.774;2023-08-07T04:09:49;99670.88;;;9.50;nan
10392;BME280;5242;49.244;6.774;2023-08-07T04:17:41;99663.50;;;9.50;nan
10392;BME280;5242;49.244;6.774;2023-08-07T04:25:32;99666.13;;;9.47;nan
10392;BME280;5242;49.244;6.774;2023-08-07T04:33:24;99674.75;;;9.49;nan
10392;BME280;5242;49.244;6.774;2023-08-07T04:41:16;99671.78;;;9.54;nan
10392;BME280;5242;49.244;6.774;2023-08-07T04:49:08;99687.19;;;9.50;nan
10392;BME280;5242;49.244;6.774;2023-08-07T04:57:00;99692.16;;;9.48;nan
10392;BME280;5242;49.244;6.774;2023-08-07T05:04:51;99691.91;;;9.65;nan
10392;BME280;5242;49.244;6.774;2023-08-07T05:12:43;99691.38;;;10.00;nan
10392;BME280;5242;49.244;6.774;2023-08-07T05:20:35;99706.88;;;10.40;nan
10392;BME280;5242;49.244;6.774;2023-08-07T05:28:27;99705.66;;;10.97;nan
10392;BME280;5242;49.244;6.774;2023-08-07T05:36:18;99697.06;;;11.46;nan
10392;BME280;5242;49.244;6.774;2023-08-07T05:44:10;99707.25;;;11.85;nan
10392;BME280;5242;49.244;6.774;2023-08-07T05:52:02;99716.56;;;12.19;nan
10392;BME280;5242;49.244;6.774;2023-08-07T05:59:54;99715.69;;;12.54;nan
10392;BME280;5242;49.244;6.774;2023-08-07T06:07:46;99727.13;;;12.82;nan
10392;BME280;5242;49.244;6.774;2023-08-07T06:15:37;99726.88;;;13.14;nan
10392;BME280;5242;49.244;6.774;2023-08-07T06:23:29;99732.22;;;13.53;nan
10392;BME280;5242;49.244;6.774;2023-08-07T06:31:21;99734.34;;;13.94;nan
10392;BME280;5242;49.244;6.774;2023-08-07T06:39:13;99742.72;;;14.38;nan
10392;BME280;5242;49.244;6.774;2023-08-07T06:47:05;99742.75;;;14.75;nan
10392;BME280;5242;49.244;6.774;2023-08-07T06:55:00;99754.16;;;15.22;nan
10392;BME280;5242;49.244;6.774;2023-08-07T07:02:52;99743.38;;;15.51;nan
10392;BME280;5242;49.244;6.774;2023-08-07T07:10:44;99743.28;;;15.92;nan
10392;BME280;5242;49.244;6.774;2023-08-07T07:18:36;99744.25;;;16.32;nan
10392;BME280;5242;49.244;6.774;2023-08-07T07:26:28;99758.50;;;16.73;nan
10392;BME280;5242;49.244;6.774;2023-08-07T07:34:20;99761.34;;;17.34;nan
10392;BME280;5242;49.244;6.774;2023-08-07T07:42:11;99751.47;;;17.76;nan
10392;BME280;5242;49.244;6.774;2023-08-07T07:50:06;99757.53;;;18.52;nan
10392;BME280;5242;49.244;6.774;2023-08-07T07:57:58;99775.44;;;18.96;nan
10392;BME280;5242;49.244;6.774;2023-08-07T08:05:51;99764.88;;;19.36;nan
10392;BME280;5242;49.244;6.774;2023-08-07T08:13:43;99783.44;;;18.76;nan
10392;BME280;5242;49.244;6.774;2023-08-07T08:21:35;99775.66;;;19.71;nan
10392;BME280;5242;49.244;6.774;2023-08-07T08:29:27;99775.41;;;19.93;nan
10392;BME280;5242;49.244;6.774;2023-08-07T08:37:21;99774.72;;;20.81;nan
10392;BME280;5242;49.244;6.774;2023-08-07T08:45:14;99781.06;;;22.03;nan
10392;BME280;5242;49.244;6.774;2023-08-07T08:53:07;99791.28;;;20.54;nan
10392;BME280;5242;49.244;6.774;2023-08-07T09:01:02;99787.59;;;21.22;nan
10392;BME280;5242;49.244;6.774;2023-08-07T09:08:55;99784.00;;;24.87;nan
10392;BME280;5242;49.244;6.774;2023-08-07T09:16:49;99801.22;;;25.24;nan
10392;BME280;5242;49.244;6.774;2023-08-07T09:24:41;99809.91;;;22.29;nan
10392;BME280;5242;49.244;6.774;2023-08-07T09:32:33;99805.59;;;21.61;nan
10392;BME280;5242;49.244;6.774;2023-08-07T09:40:25;99811.03;;;21.68;nan
10392;BME280;5242;49.244;6.774;2023-08-07T09:48:24;99818.69;;;21.80;nan
10392;BME280;5242;49.244;6.774;2023-08-07T09:56:16;99827.00;;;22.27;nan
10392;BME280;5242;49.244;6.774;2023-08-07T10:04:11;99810.88;;;22.95;nan
10392;BME280;5242;49.244;6.774;2023-08-07T10:12:07;99800.66;;;22.92;nan
10392;BME280;5242;49.244;6.774;2023-08-07T10:19:59;99800.38;;;24.72;nan
10392;BME280;5242;49.244;6.774;2023-08-07T10:27:53;99809.81;;;23.91;nan
10392;BME280;5242;49.244;6.774;2023-08-07T10:35:47;99817.22;;;23.32;nan
10392;BME280;5242;49.244;6.774;2023-08-07T10:43:44;99813.66;;;22.95;nan
10392;BME280;5242;49.244;6.774;2023-08-07T10:51:36;99817.75;;;24.05;nan
10392;BME280;5242;49.244;6.774;2023-08-07T10:59:28;99802.84;;;27.32;nan
10392;BME280;5242;49.244;6.774;2023-08-07T11:07:25;99799.47;;;27.56;nan
10392;BME280;5242;49.244;6.774;2023-08-07T11:15:17;99798.19;;;26.57;nan
10392;BME280;5242;49.244;6.774;2023-08-07T11:23:09;99805.44;;;25.76;nan
10392;BME280;5242;49.244;6.774;2023-08-07T11:31:01;99799.38;;;24.66;nan
10392;BME280;5242;49.244;6.774;2023-08-07T11:38:53;99796.69;;;27.46;nan
10392;BME280;5242;49.244;6.774;2023-08-07T11:46:45;99798.59;;;28.14;nan
10392;BME280;5242;49.244;6.774;2023-08-07T11:54:37;99790.78;;;27.44;nan
10392;BME280;5242;49.244;6.774;2023-08-07T12:02:28;99783.06;;;28.83;nan
10392;BME280;5242;49.244;6.774;2023-08-07T12:10:22;99764.91;;;29.36;nan
10392;BME280;5242;49.244;6.774;2023-08-07T12:18:14;99764.16;;;28.50;nan
10392;BME280;5242;49.244;6.774;2023-08-07T12:26:07;99776.34;;;27.73;nan
10392;BME280;5242;49.244;6.774;2023-08-07T12:33:59;99772.97;;;25.69;nan
10392;BME280;5242;49.244;6.774;2023-08-07T12:42:10;99764.94;;;26.06;nan
10392;BME280;5242;49.244;6.774;2023-08-07T12:50:05;99762.34;;;25.90;nan
10392;BME280;5242;49.244;6.774;2023-08-07T12:57:58;99779.47;;;24.93;nan
10392;BME280;5242;49.244;6.774;2023-08-07T13:05:50;99772.53;;;24.98;nan
10392;BME280;5242;49.244;6.774;2023-08-07T13:13:41;99774.75;;;24.90;nan
10392;BME280;5242;49.244;6.774;2023-08-07T13:21:36;99773.34;;;25.24;nan
10392;BME280;5242;49.244;6.774;2023-08-07T13:29:28;99777.31;;;26.05;nan
10392;BME280;5242;49.244;6.774;2023-08-07T13:37:21;99791.44;;;24.64;nan
10392;BME280;5242;49.244;6.774;2023-08-07T13:45:13;99781.84;;;24.11;nan
10392;BME280;5242;49.244;6.774;2023-08-07T13:53:05;99788.88;;;23.70;nan
10392;BME280;5242;49.244;6.774;2023-08-07T14:01:06;99790.97;;;23.65;nan
10392;BME280;5242;49.244;6.774;2023-08-07T14:08:58;99792.63;;;23.63;nan
10392;BME280;5242;49.244;6.774;2023-08-07T14:16:50;99797.84;;;23.12;nan
10392;BME280;5242;49.244;6.774;2023-08-07T14:24:42;99798.94;;;22.98;nan
10392;BME280;5242;49.244;6.774;2023-08-07T14:32:34;99799.00;;;22.58;nan
10392;BME280;5242;49.244;6.774;2023-08-07T14:40:25;99795.59;;;23.07;nan
10392;BME280;5242;49.244;6.774;2023-08-07T14:48:19;99800.63;;;23.12;nan
10392;BME280;5242;49.244;6.774;2023-08-07T14:56:11;99803.47;;;22.52;nan
10392;BME280;5242;49.244;6.774;2023-08-07T15:04:03;99806.88;;;22.00;nan
10392;BME280;5242;49.244;6.774;2023-08-07T15:11:54;99797.56;;;22.10;nan
10392;BME280;5242;49.244;6.774;2023-08-07T15:19:47;99775.16;;;22.61;nan
10392;BME280;5242;49.244;6.774;2023-08-07T15:27:38;99783.34;;;22.68;nan
10392;BME280;5242;49.244;6.774;2023-08-07T15:35:30;99783.78;;;22.26;nan
10392;BME280;5242;49.244;6.774;2023-08-07T15:43:23;99782.47;;;22.11;nan
10392;BME280;5242;49.244;6.774;2023-08-07T15:51:15;99779.22;;;22.16;nan
10392;BME280;5242;49.244;6.774;2023-08-07T15:59:07;99764.44;;;22.43;nan
10392;BME280;5242;49.244;6.774;2023-08-07T16:06:59;99760.91;;;22.22;nan
10392;BME280;5242;49.244;6.774;2023-08-07T16:14:51;99756.78;;;22.30;nan
10392;BME280;5242;49.244;6.774;2023-08-07T16:22:43;99763.88;;;22.31;nan
10392;BME280;5242;49.244;6.774;2023-08-07T16:30:35;99755.03;;;22.36;nan
10392;BME280;5242;49.244;6.774;2023-08-07T16:38:27;99751.66;;;22.09;nan
10392;BME280;5242;49.244;6.774;2023-08-07T16:46:18;99757.06;;;21.73;nan
10392;BME280;5242;49.244;6.774;2023-08-07T16:54:11;99758.00;;;21.66;nan
10392;BME280;5242;49.244;6.774;2023-08-07T17:02:03;99760.88;;;21.35;nan
10392;BME280;5242;49.244;6.774;2023-08-07T17:09:55;99764.81;;;21.11;nan
10392;BME280;5242;49.244;6.774;2023-08-07T17:17:47;99761.94;;;21.18;nan
10392;BME280;5242;49.244;6.774;2023-08-07T17:25:40;99759.72;;;21.33;nan
10392;BME280;5242;49.244;6.774;2023-08-07T17:33:32;99752.56;;;21.35;nan
10392;BME280;5242;49.244;6.774;2023-08-07T17:41:28;99751.59;;;21.22;nan
10392;BME280;5242;49.244;6.774;2023-08-07T17:49:20;99751.56;;;20.71;nan
10392;BME280;5242;49.244;6.774;2023-08-07T17:57:12;99756.09;;;20.24;nan
10392;BME280;5242;49.244;6.774;2023-08-07T18:05:04;99757.28;;;19.88;nan
10392;BME280;5242;49.244;6.774;2023-08-07T18:12:57;99756.88;;;19.48;nan
10392;BME280;5242;49.244;6.774;2023-08-07T18:20:49;99754.97;;;18.89;nan
10392;BME280;5242;49.244;6.774;2023-08-07T18:28:41;99750.59;;;18.15;nan
10392;BME280;5242;49.244;6.774;2023-08-07T18:36:33;99765.25;;;17.65;nan
10392;BME280;5242;49.244;6.774;2023-08-07T18:44:25;99755.44;;;17.35;nan
10392;BME280;5242;49.244;6.774;2023-08-07T18:52:17;99763.28;;;17.05;nan
10392;BME280;5242;49.244;6.774;2023-08-07T19:00:09;99775.00;;;16.69;nan
10392;BME280;5242;49.244;6.774;2023-08-07T19:08:01;99770.94;;;16.35;nan
10392;BME280;5242;49.244;6.774;2023-08-07T19:15:54;99777.84;;;16.00;nan
10392;BME280;5242;49.244;6.774;2023-08-07T19:23:46;99784.69;;;15.69;nan
10392;BME280;5242;49.244;6.774;2023-08-07T19:31:38;99788.03;;;15.44;nan
10392;BME280;5242;49.244;6.774;2023-08-07T19:39:30;99793.84;;;15.35;nan
10392;BME280;5242;49.244;6.774;2023-08-07T19:47:21;99797.00;;;15.37;nan
10392;BME280;5242;49.244;6.774;2023-08-07T19:55:26;99789.97;;;15.40;nan
10392;BME280;5242;49.244;6.774;2023-08-07T20:03:18;99796.66;;;15.42;nan
10392;BME280;5242;49.244;6.774;2023-08-07T20:11:10;99798.91;;;15.33;nan
10392;BME280;5242;49.244;6.774;2023-08-07T20:19:02;99797.56;;;15.13;nan
10392;BME280;5242;49.244;6.774;2023-08-07T20:26:57;99798.22;;;14.99;nan
10392;BME280;5242;49.244;6.774;2023-08-07T20:34:49;99793.78;;;14.87;nan
10392;BME280;5242;49.244;6.774;2023-08-07T20:42:41;99793.31;;;14.78;nan
10392;BME280;5242;49.244;6.774;2023-08-07T20:50:33;99793.88;;;14.61;nan
10392;BME280;5242;49.244;6.774;2023-08-07T20:58:24;99788.09;;;14.39;nan
10392;BME280;5242;49.244;6.774;2023-08-07T21:06:16;99786.34;;;14.24;nan
10392;BME280;5242;49.244;6.774;2023-08-07T21:14:08;99780.88;;;14.24;nan
10392;BME280;5242;49.244;6.774;2023-08-07T21:22:00;99766.78;;;14.22;nan
10392;BME280;5242;49.244;6.774;2023-08-07T21:29:52;99762.09;;;14.22;nan
10392;BME280;5242;49.244;6.774;2023-08-07T21:37:43;99764.03;;;14.22;nan
10392;BME280;5242;49.244;6.774;2023-08-07T21:45:36;99759.38;;;14.26;nan
10392;BME280;5242;49.244;6.774;2023-08-07T21:53:28;99760.66;;;14.32;nan
10392;BME280;5242;49.244;6.774;2023-08-07T22:01:19;99748.09;;;14.31;nan
10392;BME280;5242;49.244;6.774;2023-08-07T22:09:14;99729.88;;;14.12;nan
10392;BME280;5242;49.244;6.774;2023-08-07T22:17:06;99732.75;;;13.92;nan
10392;BME280;5242;49.244;6.774;2023-08-07T22:24:58;99729.66;;;13.67;nan
10392;BME280;5242;49.244;6.774;2023-08-07T22:32:50;99732.22;;;13.53;nan
10392;BME280;5242;49.244;6.774;2023-08-07T22:40:42;99729.63;;;13.37;nan
10392;BME280;5242;49.244;6.774;2023-08-07T22:48:34;99733.19;;;13.18;nan
10392;BME280;5242;49.244;6.774;2023-08-07T22:56:26;99726.69;;;13.03;nan
10392;BME280;5242;49.244;6.774;2023-08-07T23:04:18;99714.75;;;12.89;nan
10392;BME280;5242;49.244;6.774;2023-08-07T23:12:09;99704.34;;;12.75;nan
10392;BME280;5242;49.244;6.774;2023-08-07T23:20:02;99710.34;;;12.61;nan
10392;BME280;5242;49.244;6.774;2023-08-07T23:27:53;99721.00;;;12.47;nan
10392;BME280;5242;49.244;6.774;2023-08-07T23:35:45;99716.13;;;12.36;nan
10392;BME280;5242;49.244;6.774;2023-08-07T23:43:37;99705.63;;;12.19;nan
10392;BME280;5242;49.244;6.774;2023-08-07T23:51:29;99696.88;;;12.10;nan
10392;BME280;5242;49.244;6.774;2023-08-07T23:59:21;99700.19;;;12.00;nan
